sensor_id;sensor_type;location;lat;lon;timestamp;temperature;humidity
18268;DHT22;9260;49.998;19.880;2023-06-24T00:06:55;16.80;1.00
18268;DHT22;9260;49.998;19.880;2023-06-24T00:17:00;16.90;1.00
18268;DHT22;9260;49.998;19.880;2023-06-24T00:27:05;16.70;1.00
18268;DHT22;9260;49.998;19.880;2023-06-24T00:37:09;16.80;1.00
18268;DHT22;9260;49.998;19.880;2023-06-24T00:47:13;16.80;1.00
18268;DHT22;9260;49.998;19.880;2023-06-24T01:07:22;16.60;1.00
18268;DHT22;9260;49.998;19.880;2023-06-24T01:17:27;16.50;1.00
18268;DHT22;9260;49.998;19.880;2023-06-24T01:27:51;16.50;1.00
18268;DHT22;9260;49.998;19.880;2023-06-24T01:38:10;16.50;1.00
18268;DHT22;9260;49.998;19.880;2023-06-24T01:48:19;16.50;1.00
18268;DHT22;9260;49.998;19.880;2023-06-24T02:08:32;16.50;1.00
18268;DHT22;9260;49.998;19.880;2023-06-24T02:28:44;16.50;1.00
18268;DHT22;9260;49.998;19.880;2023-06-24T02:38:49;16.40;1.00
18268;DHT22;9260;49.998;19.880;2023-06-24T02:48:52;16.40;1.00
18268;DHT22;9260;49.998;19.880;2023-06-24T03:09:01;16.50;1.00
18268;DHT22;9260;49.998;19.880;2023-06-24T03:29:12;16.50;1.00
18268;DHT22;9260;49.998;19.880;2023-06-24T03:49:31;17.00;1.00
18268;DHT22;9260;49.998;19.880;2023-06-24T03:59:36;16.60;1.00
18268;DHT22;9260;49.998;19.880;2023-06-24T04:09:39;16.60;1.00
18268;DHT22;9260;49.998;19.880;2023-06-24T04:39:52;16.30;1.00
18268;DHT22;9260;49.998;19.880;2023-06-24T04:49:56;16.20;1.00
18268;DHT22;9260;49.998;19.880;2023-06-24T05:00:00;16.10;1.00
18268;DHT22;9260;49.998;19.880;2023-06-24T05:10:04;16.20;1.00
18268;DHT22;9260;49.998;19.880;2023-06-24T05:40:18;16.60;1.00
18268;DHT22;9260;49.998;19.880;2023-06-24T05:50:21;16.90;1.00
18268;DHT22;9260;49.998;19.880;2023-06-24T06:00:26;17.30;1.00
18268;DHT22;9260;49.998;19.880;2023-06-24T06:10:29;17.40;1.00
18268;DHT22;9260;49.998;19.880;2023-06-24T06:20:34;17.30;1.00
18268;DHT22;9260;49.998;19.880;2023-06-24T06:30:37;17.10;1.00
18268;DHT22;9260;49.998;19.880;2023-06-24T06:40:42;16.80;1.00
18268;DHT22;9260;49.998;19.880;2023-06-24T07:00:51;16.60;1.00
18268;DHT22;9260;49.998;19.880;2023-06-24T07:10:54;16.80;1.00
18268;DHT22;9260;49.998;19.880;2023-06-24T07:20:59;17.30;1.00
18268;DHT22;9260;49.998;19.880;2023-06-24T07:31:03;17.90;1.00
18268;DHT22;9260;49.998;19.880;2023-06-24T07:41:09;17.80;1.00
18268;DHT22;9260;49.998;19.880;2023-06-24T07:51:12;17.40;1.00
18268;DHT22;9260;49.998;19.880;2023-06-24T08:01:19;17.30;1.00
18268;DHT22;9260;49.998;19.880;2023-06-24T08:11:22;16.90;1.00
18268;DHT22;9260;49.998;19.880;2023-06-24T08:31:31;17.50;1.00
18268;DHT22;9260;49.998;19.880;2023-06-24T08:41:36;17.80;1.00
18268;DHT22;9260;49.998;19.880;2023-06-24T08:51:40;17.90;1.00
18268;DHT22;9260;49.998;19.880;2023-06-24T09:01:45;17.90;1.00
18268;DHT22;9260;49.998;19.880;2023-06-24T09:11:53;18.00;1.00
18268;DHT22;9260;49.998;19.880;2023-06-24T09:22:00;18.60;1.00
18268;DHT22;9260;49.998;19.880;2023-06-24T09:42:09;20.10;1.00
18268;DHT22;9260;49.998;19.880;2023-06-24T09:52:13;20.00;1.00
18268;DHT22;9260;49.998;19.880;2023-06-24T10:02:20;19.30;1.00
18268;DHT22;9260;49.998;19.880;2023-06-24T10:12:23;19.10;1.00
18268;DHT22;9260;49.998;19.880;2023-06-24T10:22:29;18.60;1.00
18268;DHT22;9260;49.998;19.880;2023-06-24T10:32:39;18.70;1.00
18268;DHT22;9260;49.998;19.880;2023-06-24T10:42:44;20.10;1.00
18268;DHT22;9260;49.998;19.880;2023-06-24T10:52:50;20.80;1.00
18268;DHT22;9260;49.998;19.880;2023-06-24T11:03:08;20.50;1.00
18268;DHT22;9260;49.998;19.880;2023-06-24T11:13:12;20.00;1.00
18268;DHT22;9260;49.998;19.880;2023-06-24T11:23:17;19.70;1.00
18268;DHT22;9260;49.998;19.880;2023-06-24T11:33:27;21.10;1.00
18268;DHT22;9260;49.998;19.880;2023-06-24T11:43:32;21.20;1.00
18268;DHT22;9260;49.998;19.880;2023-06-24T11:53:40;20.30;1.00
18268;DHT22;9260;49.998;19.880;2023-06-24T12:03:45;21.00;1.00
18268;DHT22;9260;49.998;19.880;2023-06-24T12:13:49;21.70;1.00
18268;DHT22;9260;49.998;19.880;2023-06-24T12:23:53;19.90;1.00
18268;DHT22;9260;49.998;19.880;2023-06-24T12:33:56;18.40;1.00
18268;DHT22;9260;49.998;19.880;2023-06-24T12:44:01;17.80;1.00
18268;DHT22;9260;49.998;19.880;2023-06-24T12:54:05;18.00;1.00
18268;DHT22;9260;49.998;19.880;2023-06-24T13:04:09;18.40;1.00
18268;DHT22;9260;49.998;19.880;2023-06-24T13:24:17;18.60;1.00
18268;DHT22;9260;49.998;19.880;2023-06-24T13:34:21;18.30;1.00
18268;DHT22;9260;49.998;19.880;2023-06-24T13:44:25;17.80;1.00
18268;DHT22;9260;49.998;19.880;2023-06-24T13:54:29;17.50;1.00
18268;DHT22;9260;49.998;19.880;2023-06-24T14:04:36;17.20;1.00
18268;DHT22;9260;49.998;19.880;2023-06-24T14:14:40;17.00;1.00
18268;DHT22;9260;49.998;19.880;2023-06-24T14:24:48;16.80;1.00
18268;DHT22;9260;49.998;19.880;2023-06-24T14:34:51;16.70;1.00
18268;DHT22;9260;49.998;19.880;2023-06-24T15:15:09;16.30;1.00
18268;DHT22;9260;49.998;19.880;2023-06-24T15:25:14;16.30;1.00
18268;DHT22;9260;49.998;19.880;2023-06-24T15:35:17;16.30;1.00
18268;DHT22;9260;49.998;19.880;2023-06-24T15:55:26;16.20;1.00
18268;DHT22;9260;49.998;19.880;2023-06-24T16:05:33;16.20;39.80
18268;DHT22;9260;49.998;19.880;2023-06-24T16:25:44;16.30;1.00
18268;DHT22;9260;49.998;19.880;2023-06-24T16:35:48;16.00;1.00
18268;DHT22;9260;49.998;19.880;2023-06-24T16:45:54;15.80;1.00
18268;DHT22;9260;49.998;19.880;2023-06-24T16:55:57;15.50;1.00
18268;DHT22;9260;49.998;19.880;2023-06-24T17:06:02;15.20;1.00
18268;DHT22;9260;49.998;19.880;2023-06-24T17:26:10;15.00;1.00
18268;DHT22;9260;49.998;19.880;2023-06-24T17:46:18;14.60;1.00
18268;DHT22;9260;49.998;19.880;2023-06-24T17:56:22;14.10;1.00
18268;DHT22;9260;49.998;19.880;2023-06-24T18:16:33;14.20;13.10
18268;DHT22;9260;49.998;19.880;2023-06-24T18:26:37;13.90;15.70
18268;DHT22;9260;49.998;19.880;2023-06-24T18:36:41;13.80;36.50
18268;DHT22;9260;49.998;19.880;2023-06-24T18:46:45;13.80;73.10
18268;DHT22;9260;49.998;19.880;2023-06-24T19:06:54;13.80;17.50
18268;DHT22;9260;49.998;19.880;2023-06-24T19:16:59;13.50;1.00
18268;DHT22;9260;49.998;19.880;2023-06-24T19:27:04;13.40;11.50
18268;DHT22;9260;49.998;19.880;2023-06-24T19:37:07;13.70;1.00
18268;DHT22;9260;49.998;19.880;2023-06-24T19:47:15;13.50;1.00
18268;DHT22;9260;49.998;19.880;2023-06-24T19:57:19;13.40;1.00
18268;DHT22;9260;49.998;19.880;2023-06-24T20:07:24;13.40;1.00
18268;DHT22;9260;49.998;19.880;2023-06-24T20:47:41;12.90;1.00
18268;DHT22;9260;49.998;19.880;2023-06-24T20:57:44;13.00;1.00
18268;DHT22;9260;49.998;19.880;2023-06-24T21:07:48;13.00;1.00
18268;DHT22;9260;49.998;19.880;2023-06-24T21:27:58;13.00;1.00
18268;DHT22;9260;49.998;19.880;2023-06-24T21:48:06;12.60;1.00
18268;DHT22;9260;49.998;19.880;2023-06-24T22:08:14;11.80;1.00
18268;DHT22;9260;49.998;19.880;2023-06-24T22:18:19;11.40;1.00
18268;DHT22;9260;49.998;19.880;2023-06-24T22:28:23;10.90;1.00
18268;DHT22;9260;49.998;19.880;2023-06-24T22:48:32;10.20;4.50
18268;DHT22;9260;49.998;19.880;2023-06-24T22:58:35;10.00;15.20
18268;DHT22;9260;49.998;19.880;2023-06-24T23:28:48;9.80;17.90
18268;DHT22;9260;49.998;19.880;2023-06-24T23:38:53;10.00;14.30
